createdAt,value
2019-05-21T00:02:11.992Z,19.27
2019-05-21T00:04:46.398Z,22.55
2019-05-21T00:07:21.328Z,17.00
2019-05-21T00:10:00.119Z,24.37
2019-05-21T00:12:38.263Z,18.62
2019-05-21T00:15:14.178Z,21.33
2019-05-21T00:17:48.751Z,24.67
2019-05-21T00:20:24.430Z,21.62
2019-05-21T00:22:58.698Z,26.60
2019-05-21T00:25:33.285Z,26.33
2019-05-21T00:28:33.736Z,28.40
2019-05-21T00:31:43.047Z,30.52
2019-05-21T00:34:52.297Z,30.12
2019-05-21T00:38:01.664Z,26.07
2019-05-21T00:41:11.372Z,24.67
2019-05-21T00:43:50.301Z,24.50
2019-05-21T00:46:24.668Z,30.85
2019-05-21T00:48:59.066Z,26.68
2019-05-21T00:51:33.658Z,28.60
2019-05-21T00:54:08.201Z,28.40
2019-05-21T00:56:43.754Z,20.68
2019-05-21T00:59:18.196Z,22.15
2019-05-21T01:01:52.597Z,21.12
2019-05-21T01:04:27.190Z,35.13
2019-05-21T01:07:01.606Z,24.02
2019-05-21T01:09:36.034Z,23.55
2019-05-21T01:12:10.280Z,22.02
2019-05-21T01:14:44.572Z,24.85
2019-05-21T01:17:18.979Z,15.80
2019-05-21T01:19:53.362Z,24.72
2019-05-21T01:22:27.819Z,18.15
2019-05-21T01:25:02.560Z,17.07
2019-05-21T01:27:38.117Z,19.15
2019-05-21T01:30:12.837Z,16.07
2019-05-21T01:32:47.295Z,20.37
2019-05-21T01:35:21.883Z,20.50
2019-05-21T01:37:57.737Z,113.15
2019-05-21T01:40:32.068Z,180.22
2019-05-21T01:43:06.522Z,87.35
2019-05-21T01:45:41.285Z,93.25
2019-05-21T01:48:15.697Z,50.75
2019-05-21T01:50:50.023Z,45.73
2019-05-21T01:53:24.319Z,49.30
2019-05-21T01:55:58.676Z,37.60
2019-05-21T01:58:33.000Z,34.38
2019-05-21T02:01:07.340Z,35.13
2019-05-21T02:03:41.802Z,24.43
2019-05-21T02:06:16.239Z,30.70
2019-05-21T02:08:50.585Z,28.05
2019-05-21T02:11:25.375Z,26.90
2019-05-21T02:13:59.825Z,27.05
2019-05-21T02:16:35.434Z,22.77
2019-05-21T02:19:09.909Z,20.77
2019-05-21T02:21:44.824Z,19.90
2019-05-21T02:24:19.300Z,20.62
2019-05-21T02:26:53.836Z,21.62
2019-05-21T02:29:28.920Z,25.25
2019-05-21T02:32:03.428Z,19.70
2019-05-21T02:34:37.831Z,20.23
2019-05-21T02:37:12.298Z,16.87
2019-05-21T02:39:47.716Z,13.95
2019-05-21T02:42:22.330Z,14.23
2019-05-21T02:44:56.951Z,17.10
2019-05-21T02:47:31.686Z,16.57
2019-05-21T02:50:07.025Z,18.57
2019-05-21T02:52:41.366Z,13.00
2019-05-21T02:55:16.996Z,14.13
2019-05-21T02:57:51.320Z,13.68
2019-05-21T03:00:32.947Z,15.83
2019-05-21T03:03:08.557Z,9.95
2019-05-21T03:05:43.031Z,15.53
2019-05-21T03:08:17.903Z,15.13
2019-05-21T03:10:52.817Z,16.27
2019-05-21T03:13:27.963Z,16.15
2019-05-21T03:16:06.791Z,12.75
2019-05-21T03:18:42.381Z,13.13
2019-05-21T03:21:19.429Z,14.33
2019-05-21T03:23:59.516Z,18.32
2019-05-21T03:26:46.358Z,15.83
2019-05-21T03:29:20.771Z,11.10
2019-05-21T03:31:55.219Z,11.20
2019-05-21T03:34:30.659Z,13.18
2019-05-21T03:37:05.168Z,10.28
2019-05-21T03:39:39.681Z,13.65
2019-05-21T03:42:14.137Z,9.83
2019-05-21T03:44:59.920Z,12.20
2019-05-21T03:47:25.741Z,11.38
2019-05-21T03:50:00.090Z,9.63
2019-05-21T03:52:34.473Z,10.72
2019-05-21T03:55:08.929Z,14.95
2019-05-21T03:57:43.256Z,9.05
2019-05-21T04:00:18.120Z,12.88
2019-05-21T04:02:52.500Z,12.43
2019-05-21T04:05:27.845Z,10.53
2019-05-21T04:08:02.293Z,9.30
2019-05-21T04:10:37.264Z,10.50
2019-05-21T04:13:12.820Z,8.25
2019-05-21T04:15:48.892Z,11.03
2019-05-21T04:18:24.917Z,8.05
2019-05-21T04:20:59.629Z,19.15
2019-05-21T04:23:34.105Z,10.68
2019-05-21T04:26:08.894Z,12.33
2019-05-21T04:28:45.459Z,8.65
2019-05-21T04:31:19.898Z,8.55
2019-05-21T04:33:54.701Z,9.43
2019-05-21T04:36:29.705Z,9.25
2019-05-21T04:39:04.679Z,7.05
2019-05-21T04:41:39.632Z,8.50
2019-05-21T04:44:14.790Z,9.68
2019-05-21T04:46:49.822Z,11.38
2019-05-21T04:49:25.328Z,12.80
2019-05-21T04:52:00.059Z,9.63
2019-05-21T04:54:36.228Z,12.23
2019-05-21T04:57:10.812Z,6.25
2019-05-21T04:59:45.449Z,7.90
2019-05-21T05:02:23.800Z,10.90
2019-05-21T05:04:58.706Z,10.15
2019-05-21T05:07:34.496Z,8.90
2019-05-21T05:10:14.316Z,9.63
2019-05-21T05:12:49.560Z,9.68
2019-05-21T05:15:24.469Z,8.18
2019-05-21T05:17:59.692Z,9.25
2019-05-21T05:20:34.470Z,10.95
2019-05-21T05:23:09.293Z,9.10
2019-05-21T05:25:45.380Z,10.58
2019-05-21T05:28:20.107Z,9.75
2019-05-21T05:30:54.693Z,5.97
2019-05-21T05:33:31.004Z,5.85
2019-05-21T05:36:06.344Z,7.97
2019-05-21T05:38:52.559Z,8.03
2019-05-21T05:41:29.747Z,6.00
2019-05-21T05:44:04.626Z,11.68
2019-05-21T05:46:44.074Z,6.58
2019-05-21T05:49:35.902Z,10.80
2019-05-21T05:52:10.645Z,9.50
2019-05-21T05:54:45.455Z,8.50
2019-05-21T05:57:20.259Z,8.95
2019-05-21T05:59:55.103Z,10.82
2019-05-21T06:02:31.739Z,6.92
2019-05-21T06:05:08.640Z,5.83
2019-05-21T06:07:57.297Z,10.75
2019-05-21T06:10:19.684Z,7.92
2019-05-21T06:12:54.403Z,6.22
2019-05-21T06:15:29.512Z,14.40
2019-05-21T06:18:14.886Z,11.73
2019-05-21T06:20:51.833Z,6.45
2019-05-21T06:23:26.817Z,18.98
2019-05-21T06:26:02.401Z,11.90
2019-05-21T06:28:37.305Z,9.23
2019-05-21T06:31:12.086Z,9.95
2019-05-21T06:33:47.998Z,8.78
2019-05-21T06:36:22.468Z,7.35
2019-05-21T06:38:57.183Z,8.15
2019-05-21T06:41:36.314Z,6.55
2019-05-21T06:44:12.466Z,11.08
2019-05-21T06:46:48.479Z,6.78
2019-05-21T06:49:24.578Z,8.40
2019-05-21T06:51:59.069Z,8.05
2019-05-21T06:54:41.016Z,8.08
2019-05-21T06:57:19.615Z,8.03
2019-05-21T06:59:55.168Z,5.50
2019-05-21T07:02:31.057Z,8.10
2019-05-21T07:05:06.077Z,6.62
2019-05-21T07:07:43.547Z,6.83
2019-05-21T07:10:19.600Z,6.70
2019-05-21T07:13:07.266Z,11.28
2019-05-21T07:15:43.621Z,10.08
2019-05-21T07:18:18.442Z,8.55
2019-05-21T07:20:54.515Z,9.53
2019-05-21T07:23:29.244Z,7.58
2019-05-21T07:26:05.776Z,9.65
2019-05-21T07:28:41.812Z,7.83
2019-05-21T07:31:18.027Z,9.45
2019-05-21T07:33:53.693Z,8.00
2019-05-21T07:36:38.723Z,9.95
2019-05-21T07:39:13.544Z,9.58
2019-05-21T07:41:48.323Z,10.18
2019-05-21T07:44:24.184Z,12.10
2019-05-21T07:47:00.023Z,10.30
2019-05-21T07:49:34.776Z,14.53
2019-05-21T07:52:10.963Z,10.35
2019-05-21T07:54:46.005Z,6.10
2019-05-21T07:57:20.630Z,7.28
2019-05-21T07:59:58.322Z,7.08
2019-05-21T08:02:37.976Z,8.98
2019-05-21T08:05:15.090Z,8.05
2019-05-21T08:07:50.122Z,9.25
2019-05-21T08:10:26.540Z,10.63
2019-05-21T08:13:03.160Z,11.33
2019-05-21T08:15:41.533Z,8.73
2019-05-21T08:18:16.568Z,8.65
2019-05-21T08:20:52.411Z,11.55
2019-05-21T08:23:27.262Z,11.22
2019-05-21T08:26:03.770Z,7.40
2019-05-21T08:28:39.389Z,11.33
2019-05-21T08:31:15.337Z,9.23
2019-05-21T08:33:51.626Z,7.58
2019-05-21T08:36:48.417Z,8.28
2019-05-21T08:39:28.753Z,7.03
2019-05-21T08:41:59.338Z,10.18
2019-05-21T08:44:34.479Z,11.25
2019-05-21T08:47:09.403Z,11.12
2019-05-21T08:49:45.016Z,13.00
2019-05-21T08:52:20.573Z,9.33
2019-05-21T08:54:56.716Z,9.38
2019-05-21T08:57:33.745Z,9.23
2019-05-21T09:00:13.453Z,9.58
2019-05-21T09:02:49.146Z,11.95
2019-05-21T09:05:26.858Z,9.40
2019-05-21T09:08:13.161Z,7.08
2019-05-21T09:10:53.438Z,10.60
2019-05-21T09:13:31.832Z,9.28
2019-05-21T09:16:08.113Z,9.43
2019-05-21T09:18:45.351Z,6.75
2019-05-21T09:21:20.855Z,7.83
2019-05-21T09:23:55.917Z,6.67
2019-05-21T09:26:33.014Z,8.45
2019-05-21T09:29:07.578Z,15.18
2019-05-21T09:31:42.432Z,9.75
2019-05-21T09:34:18.579Z,8.48
2019-05-21T09:36:54.212Z,10.55
2019-05-21T09:39:28.862Z,9.48
2019-05-21T09:42:03.631Z,11.38
2019-05-21T09:44:38.241Z,10.80
2019-05-21T09:47:14.140Z,12.75
2019-05-21T09:49:48.938Z,12.00
2019-05-21T09:52:24.471Z,9.18
2019-05-21T09:54:58.777Z,10.43
2019-05-21T09:57:34.604Z,10.70
2019-05-21T10:00:19.038Z,9.15
2019-05-21T10:02:53.810Z,8.90
2019-05-21T10:05:30.506Z,9.48
2019-05-21T10:08:29.063Z,12.25
2019-05-21T10:11:03.478Z,13.93
2019-05-21T10:13:42.225Z,8.68
2019-05-21T10:16:16.641Z,8.65
2019-05-21T10:18:51.184Z,8.30
2019-05-21T10:21:25.780Z,8.98
2019-05-21T10:24:00.496Z,10.23
2019-05-21T10:26:34.947Z,8.10
2019-05-21T10:29:09.513Z,10.98
2019-05-21T10:31:45.552Z,7.50
2019-05-21T10:34:21.500Z,9.90
2019-05-21T10:36:56.477Z,6.85
2019-05-21T10:39:32.410Z,7.87
2019-05-21T10:42:17.258Z,11.83
2019-05-21T10:44:53.545Z,8.98
2019-05-21T10:47:29.540Z,10.25
2019-05-21T10:50:06.732Z,8.73
2019-05-21T10:52:42.528Z,10.13
2019-05-21T10:55:17.762Z,12.82
2019-05-21T10:57:53.716Z,9.55
2019-05-21T11:00:30.295Z,8.23
2019-05-21T11:03:15.121Z,14.85
2019-05-21T11:06:09.149Z,11.28
2019-05-21T11:08:31.053Z,9.33
2019-05-21T11:11:06.916Z,10.72
2019-05-21T11:13:41.488Z,10.13
2019-05-21T11:16:17.298Z,9.20
2019-05-21T11:18:53.172Z,11.75
2019-05-21T11:21:27.862Z,9.23
2019-05-21T11:24:02.576Z,10.60
2019-05-21T11:26:38.144Z,8.83
2019-05-21T11:29:14.542Z,11.43
2019-05-21T11:31:57.092Z,12.63
2019-05-21T11:34:26.265Z,12.28
2019-05-21T11:37:02.676Z,10.15
2019-05-21T11:39:37.660Z,14.60
2019-05-21T11:42:13.235Z,14.10
2019-05-21T11:44:47.968Z,11.93
2019-05-21T11:47:25.660Z,15.48
2019-05-21T11:50:02.559Z,16.35
2019-05-21T11:52:37.856Z,18.48
2019-05-21T11:55:13.110Z,15.23
2019-05-21T11:57:47.607Z,18.92
2019-05-21T12:00:23.689Z,17.02
2019-05-21T12:02:58.731Z,17.87
2019-05-21T12:05:33.788Z,13.32
2019-05-21T12:08:09.221Z,11.60
2019-05-21T12:10:48.156Z,12.35
2019-05-21T12:13:24.312Z,12.25
2019-05-21T12:16:00.997Z,11.43
2019-05-21T12:18:38.309Z,11.08
2019-05-21T12:21:14.006Z,9.28
2019-05-21T12:23:49.158Z,10.95
2019-05-21T12:26:24.004Z,10.32
2019-05-21T12:28:58.714Z,10.72
2019-05-21T12:31:36.107Z,9.88
2019-05-21T12:34:11.214Z,11.22
2019-05-21T12:36:46.219Z,10.58
2019-05-21T12:39:22.120Z,10.20
2019-05-21T12:41:57.398Z,9.30
2019-05-21T12:44:32.034Z,13.53
2019-05-21T12:47:10.796Z,10.53
2019-05-21T12:49:46.528Z,9.70
2019-05-21T12:52:22.963Z,9.83
2019-05-21T12:54:57.523Z,13.65
2019-05-21T12:57:32.204Z,11.60
2019-05-21T13:00:09.110Z,10.35
2019-05-21T13:02:43.733Z,9.43
2019-05-21T13:05:21.416Z,10.05
2019-05-21T13:07:55.966Z,10.53
2019-05-21T13:10:30.414Z,9.10
2019-05-21T13:13:05.329Z,10.98
2019-05-21T13:15:40.440Z,10.08
2019-05-21T13:18:16.005Z,9.45
2019-05-21T13:21:00.241Z,8.78
2019-05-21T13:23:39.271Z,10.68
2019-05-21T13:26:15.991Z,10.78
2019-05-21T13:28:53.210Z,12.07
2019-05-21T13:31:28.389Z,10.20
2019-05-21T13:34:06.877Z,10.48
2019-05-21T13:36:41.953Z,13.88
2019-05-21T13:39:19.859Z,9.75
2019-05-21T13:44:52.229Z,14.17
2019-05-21T13:47:32.481Z,14.83
2019-05-21T13:50:12.084Z,14.00
2019-05-21T13:52:47.636Z,16.10
2019-05-21T13:55:24.191Z,12.28
2019-05-21T13:57:58.882Z,12.37
2019-05-21T14:01:00.266Z,15.90
2019-05-21T14:03:36.157Z,12.23
2019-05-21T14:06:12.283Z,13.00
2019-05-21T14:08:47.238Z,13.20
2019-05-21T14:11:29.226Z,10.18
2019-05-21T14:14:06.348Z,11.93
2019-05-21T14:16:43.789Z,13.35
2019-05-21T14:19:19.901Z,10.15
2019-05-21T14:21:58.379Z,10.10
2019-05-21T14:24:33.186Z,7.72
2019-05-21T14:27:07.836Z,13.85
2019-05-21T14:29:46.868Z,7.62
2019-05-21T14:32:26.014Z,8.85
2019-05-21T14:35:02.467Z,12.00
2019-05-21T14:37:58.768Z,18.07
2019-05-21T14:40:33.806Z,11.48
2019-05-21T14:43:10.181Z,14.58
2019-05-21T14:45:46.858Z,13.45
2019-05-21T14:48:22.604Z,10.40
2019-05-21T14:51:05.964Z,11.33
2019-05-21T14:53:43.547Z,13.43
2019-05-21T14:56:18.502Z,13.55
2019-05-21T14:58:59.272Z,10.10
2019-05-21T15:01:46.021Z,10.18
2019-05-21T15:04:23.979Z,11.63
2019-05-21T15:07:00.494Z,13.65
2019-05-21T15:09:36.190Z,10.35
2019-05-21T15:12:12.950Z,11.03
2019-05-21T15:15:07.186Z,9.53
2019-05-21T15:17:44.712Z,11.80
2019-05-21T15:20:23.259Z,8.78
2019-05-21T15:22:58.839Z,7.80
2019-05-21T15:25:35.275Z,12.50
2019-05-21T15:28:20.121Z,10.48
2019-05-21T15:30:58.072Z,13.05
2019-05-21T15:33:34.230Z,10.88
2019-05-21T15:36:09.567Z,10.70
2019-05-21T15:38:50.829Z,10.90
2019-05-21T15:41:25.696Z,9.28
2019-05-21T15:44:01.363Z,12.10
2019-05-21T15:46:49.480Z,9.85
2019-05-21T15:49:35.077Z,9.85
2019-05-21T15:52:05.457Z,9.33
2019-05-21T15:54:42.716Z,11.08
2019-05-21T15:57:18.637Z,14.65
2019-05-21T15:59:55.953Z,13.48
2019-05-21T16:02:35.529Z,16.85
2019-05-21T16:05:11.211Z,13.80
2019-05-21T16:07:47.449Z,13.78
2019-05-21T16:10:23.215Z,14.28
2019-05-21T16:13:01.322Z,16.32
2019-05-21T16:15:38.878Z,13.40
2019-05-21T16:18:16.857Z,12.33
2019-05-21T16:20:54.219Z,14.90
2019-05-21T16:23:30.121Z,13.95
2019-05-21T16:26:05.955Z,11.35
2019-05-21T16:28:41.987Z,12.47
2019-05-21T16:31:17.169Z,15.10
2019-05-21T16:33:51.999Z,17.07
2019-05-21T16:36:26.589Z,12.33
2019-05-21T16:39:03.546Z,14.78
2019-05-21T16:41:44.911Z,13.40
2019-05-21T16:44:18.875Z,12.47
2019-05-21T16:46:55.124Z,12.60
2019-05-21T16:49:31.257Z,13.50
2019-05-21T16:52:06.247Z,13.00
2019-05-21T16:54:42.945Z,12.20
2019-05-21T16:57:18.772Z,19.10
2019-05-21T16:59:54.932Z,14.20
2019-05-21T17:02:30.308Z,12.28
2019-05-21T17:05:05.566Z,12.82
2019-05-21T17:07:42.667Z,11.63
2019-05-21T17:10:19.375Z,10.95
2019-05-21T17:12:56.025Z,10.88
2019-05-21T17:15:30.691Z,8.18
2019-05-21T17:18:05.400Z,11.95
2019-05-21T17:20:40.232Z,11.08
2019-05-21T17:23:16.692Z,8.80
2019-05-21T17:25:50.600Z,11.25
2019-05-21T17:28:27.113Z,12.68
2019-05-21T17:31:01.062Z,9.58
2019-05-21T17:33:36.596Z,9.68
2019-05-21T17:36:12.172Z,9.13
2019-05-21T17:38:46.935Z,13.93
2019-05-21T17:41:22.960Z,10.38
2019-05-21T17:43:57.541Z,9.48
2019-05-21T17:46:32.191Z,10.68
2019-05-21T17:49:06.754Z,10.68
2019-05-21T17:51:42.824Z,13.85
2019-05-21T17:54:17.311Z,10.68
2019-05-21T17:56:52.980Z,9.68
2019-05-21T17:59:28.774Z,12.53
2019-05-21T18:02:07.548Z,10.28
2019-05-21T18:04:43.285Z,11.22
2019-05-21T18:07:18.216Z,11.88
2019-05-21T18:09:53.558Z,12.10
2019-05-21T18:12:32.127Z,10.93
2019-05-21T18:15:04.455Z,10.32
2019-05-21T18:17:40.394Z,12.25
2019-05-21T18:20:16.861Z,12.40
2019-05-21T18:22:53.887Z,11.65
2019-05-21T18:25:30.007Z,10.35
2019-05-21T18:28:05.567Z,13.95
2019-05-21T18:30:40.883Z,10.75
2019-05-21T18:33:16.632Z,9.78
2019-05-21T18:35:50.957Z,9.48
2019-05-21T18:38:25.496Z,13.80
2019-05-21T18:41:01.320Z,11.03
2019-05-21T18:43:36.066Z,11.70
2019-05-21T18:46:11.440Z,13.18
2019-05-21T18:48:46.856Z,9.45
2019-05-21T18:51:22.391Z,9.25
2019-05-21T18:53:57.841Z,11.95
2019-05-21T18:56:33.705Z,12.93
2019-05-21T18:59:08.148Z,12.00
2019-05-21T19:01:42.822Z,8.53
2019-05-21T19:04:17.190Z,10.32
2019-05-21T19:06:52.804Z,13.32
2019-05-21T19:09:27.151Z,12.03
2019-05-21T19:12:02.922Z,13.15
2019-05-21T19:14:37.322Z,14.53
2019-05-21T19:17:11.636Z,13.00
2019-05-21T19:19:45.933Z,14.35
2019-05-21T19:22:20.276Z,15.23
2019-05-21T19:24:54.617Z,9.88
2019-05-21T19:27:28.967Z,11.33
2019-05-21T19:30:03.192Z,11.60
2019-05-21T19:32:39.143Z,10.90
2019-05-21T19:35:14.587Z,10.50
2019-05-21T19:37:50.090Z,12.53
2019-05-21T19:40:25.608Z,12.20
2019-05-21T19:42:59.863Z,10.45
2019-05-21T19:45:34.227Z,13.98
2019-05-21T19:48:08.707Z,10.18
2019-05-21T19:50:43.019Z,10.25
2019-05-21T19:53:17.400Z,12.10
2019-05-21T19:55:53.017Z,11.50
2019-05-21T19:58:27.499Z,10.50
2019-05-21T20:01:01.853Z,9.25
2019-05-21T20:03:36.327Z,11.15
2019-05-21T20:06:11.921Z,13.98
2019-05-21T20:08:47.747Z,11.63
2019-05-21T20:11:23.212Z,14.95
2019-05-21T20:13:57.695Z,11.55
2019-05-21T20:16:33.496Z,11.73
2019-05-21T20:19:09.359Z,12.60
2019-05-21T20:21:45.509Z,15.05
2019-05-21T20:24:21.100Z,9.45
2019-05-21T20:26:56.297Z,10.75
2019-05-21T20:29:33.191Z,11.80
2019-05-21T20:32:08.598Z,12.33
2019-05-21T20:34:44.779Z,10.50
2019-05-21T20:37:20.930Z,11.35
2019-05-21T20:39:56.610Z,11.43
2019-05-21T20:42:33.753Z,13.10
2019-05-21T20:45:10.504Z,9.08
2019-05-21T20:47:46.120Z,11.43
2019-05-21T20:50:21.377Z,10.13
2019-05-21T20:52:57.198Z,11.75
2019-05-21T20:55:32.494Z,13.55
2019-05-21T20:58:09.146Z,11.57
2019-05-21T21:00:45.263Z,13.20
2019-05-21T21:03:19.986Z,12.58
2019-05-21T21:05:55.115Z,11.53
2019-05-21T21:08:30.143Z,10.00
2019-05-21T21:11:06.785Z,10.43
2019-05-21T21:13:42.613Z,11.70
2019-05-21T21:16:16.995Z,12.80
2019-05-21T21:18:51.692Z,10.63
2019-05-21T21:21:27.880Z,9.38
2019-05-21T21:24:02.404Z,14.10
2019-05-21T21:26:38.185Z,11.95
2019-05-21T21:29:12.511Z,10.58
2019-05-21T21:31:48.191Z,13.72
2019-05-21T21:34:22.474Z,11.93
2019-05-21T21:36:57.745Z,10.93
2019-05-21T21:39:32.232Z,10.70
2019-05-21T21:42:07.739Z,11.55
2019-05-21T21:44:42.228Z,14.75
2019-05-21T21:47:20.354Z,16.32
2019-05-21T21:49:54.904Z,16.93
2019-05-21T21:52:30.477Z,13.62
2019-05-21T21:55:08.514Z,13.43
2019-05-21T21:57:42.900Z,15.90
2019-05-21T22:00:42.865Z,15.28
2019-05-21T22:03:20.746Z,13.13
2019-05-21T22:05:56.975Z,11.10
2019-05-21T22:08:34.207Z,13.65
2019-05-21T22:11:08.660Z,13.93
2019-05-21T22:13:44.769Z,13.10
2019-05-21T22:16:20.884Z,13.53
2019-05-21T22:18:55.652Z,11.90
2019-05-21T22:21:31.576Z,10.80
2019-05-21T22:24:09.049Z,11.70
2019-05-21T22:26:44.850Z,13.13
2019-05-21T22:29:19.368Z,11.30
2019-05-21T22:31:55.120Z,12.93
2019-05-21T22:34:30.109Z,16.10
2019-05-21T22:37:04.551Z,28.02
2019-05-21T22:39:40.022Z,32.15
2019-05-21T22:42:26.958Z,30.17
2019-05-21T22:45:08.051Z,34.45
2019-05-21T22:47:37.374Z,24.25
2019-05-21T22:50:11.767Z,19.60
2019-05-21T22:52:48.391Z,18.37
2019-05-21T22:55:22.736Z,12.63
2019-05-21T22:57:58.482Z,19.23
2019-05-21T23:00:34.053Z,12.28
2019-05-21T23:03:08.658Z,13.83
2019-05-21T23:05:44.069Z,14.73
2019-05-21T23:08:20.475Z,12.90
2019-05-21T23:10:54.783Z,13.62
2019-05-21T23:13:29.325Z,17.82
2019-05-21T23:16:03.634Z,13.88
2019-05-21T23:18:47.983Z,14.38
2019-05-21T23:21:29.562Z,14.85
2019-05-21T23:24:05.151Z,17.37
2019-05-21T23:26:41.360Z,20.70
2019-05-21T23:29:17.546Z,22.48
2019-05-21T23:31:54.691Z,20.37
2019-05-21T23:34:29.230Z,23.12
2019-05-21T23:37:04.004Z,15.15
2019-05-21T23:39:39.469Z,18.48
2019-05-21T23:42:27.195Z,19.27
2019-05-21T23:44:49.995Z,19.32
2019-05-21T23:47:25.067Z,18.15
2019-05-21T23:50:00.719Z,22.73
2019-05-21T23:52:37.196Z,16.80
2019-05-21T23:55:12.843Z,18.27
2019-05-21T23:57:47.649Z,19.15
